createdAt,value
2022-08-05T00:01:27.808Z,99.90
2022-08-05T00:04:08.313Z,99.90
2022-08-05T00:06:44.154Z,99.90
2022-08-05T00:09:21.692Z,99.90
2022-08-05T00:12:00.027Z,99.90
2022-08-05T00:14:38.382Z,99.90
2022-08-05T00:17:18.640Z,99.90
2022-08-05T00:20:02.685Z,99.90
2022-08-05T00:22:47.206Z,99.90
2022-08-05T00:25:45.928Z,99.90
2022-08-05T00:28:29.618Z,99.90
2022-08-05T00:31:07.553Z,99.90
2022-08-05T00:34:56.659Z,99.90
2022-08-05T00:37:12.405Z,99.90
2022-08-05T00:39:24.543Z,99.90
2022-08-05T00:41:55.481Z,99.90
2022-08-05T00:44:31.605Z,99.90
2022-08-05T00:47:06.142Z,99.90
2022-08-05T00:49:44.739Z,99.90
2022-08-05T00:52:28.544Z,99.90
2022-08-05T00:54:56.731Z,99.90
2022-08-05T00:57:25.383Z,99.90
2022-08-05T01:00:07.517Z,99.90
2022-08-05T01:02:39.677Z,99.90
2022-08-05T01:05:10.227Z,99.90
2022-08-05T01:07:38.151Z,99.90
2022-08-05T01:10:33.721Z,99.90
2022-08-05T01:13:13.257Z,99.90
2022-08-05T01:15:54.179Z,99.90
2022-08-05T01:18:37.709Z,99.90
2022-08-05T01:21:22.823Z,99.90
2022-08-05T01:24:13.069Z,99.90
2022-08-05T01:27:19.078Z,99.90
2022-08-05T01:29:51.927Z,99.90
2022-08-05T01:32:23.495Z,99.90
2022-08-05T01:35:10.702Z,99.90
2022-08-05T01:37:53.371Z,99.90
2022-08-05T01:40:27.971Z,99.90
2022-08-05T01:42:59.428Z,99.90
2022-08-05T01:45:34.757Z,99.90
2022-08-05T01:48:10.892Z,99.90
2022-08-05T01:50:40.263Z,99.90
2022-08-05T01:53:37.402Z,99.90
2022-08-05T01:56:11.437Z,99.90
2022-08-05T01:58:44.966Z,99.90
2022-08-05T02:01:14.770Z,99.90
2022-08-05T02:03:53.273Z,99.90
2022-08-05T02:06:36.928Z,99.90
2022-08-05T02:09:06.284Z,99.90
2022-08-05T02:11:56.999Z,99.90
2022-08-05T02:14:38.606Z,99.90
2022-08-05T02:17:16.958Z,99.90
2022-08-05T02:20:04.173Z,99.90
2022-08-05T02:22:36.676Z,99.90
2022-08-05T02:25:49.581Z,99.90
2022-08-05T02:28:27.245Z,99.90
2022-08-05T02:31:06.020Z,99.90
2022-08-05T02:33:40.776Z,99.90
2022-08-05T02:36:13.281Z,99.90
2022-08-05T02:38:53.523Z,99.90
2022-08-05T02:41:23.559Z,99.90
2022-08-05T02:44:06.098Z,99.90
2022-08-05T02:46:44.007Z,99.90
2022-08-05T02:49:36.515Z,99.90
2022-08-05T02:52:09.212Z,99.90
2022-08-05T02:54:41.210Z,99.90
2022-08-05T02:58:11.078Z,99.90
2022-08-05T03:00:01.326Z,99.90
2022-08-05T03:02:39.008Z,99.90
2022-08-05T03:05:08.870Z,99.90
2022-08-05T03:08:00.670Z,99.90
2022-08-05T03:10:26.049Z,99.90
2022-08-05T03:15:23.936Z,99.90
2022-08-05T03:17:57.790Z,99.90
2022-08-05T03:20:26.424Z,99.90
2022-08-05T03:22:57.610Z,99.90
2022-08-05T03:25:32.933Z,99.90
2022-08-05T03:28:14.049Z,99.90
2022-08-05T03:30:42.267Z,99.90
2022-08-05T03:33:09.686Z,99.90
2022-08-05T03:35:41.189Z,99.90
2022-08-05T03:38:11.306Z,99.90
2022-08-05T03:40:47.528Z,99.90
2022-08-05T03:44:08.533Z,99.90
2022-08-05T03:46:05.235Z,99.90
2022-08-05T03:48:36.639Z,99.90
2022-08-05T03:52:37.587Z,99.90
2022-08-05T03:55:53.870Z,99.90
2022-08-05T03:57:42.645Z,99.90
2022-08-05T04:00:11.559Z,99.90
2022-08-05T04:02:57.857Z,99.90
2022-08-05T04:05:33.997Z,99.90
2022-08-05T04:08:05.726Z,99.90
2022-08-05T04:10:44.209Z,99.90
2022-08-05T04:13:12.303Z,99.90
2022-08-05T04:15:39.532Z,99.90
2022-08-05T04:18:26.897Z,99.90
2022-08-05T04:20:55.848Z,99.90
2022-08-05T04:24:05.368Z,99.90
2022-08-05T04:26:17.473Z,99.90
2022-08-05T04:28:51.092Z,99.90
2022-08-05T04:31:19.781Z,99.90
2022-08-05T04:34:17.214Z,99.90
2022-08-05T04:36:45.930Z,99.90
2022-08-05T04:39:17.387Z,99.90
2022-08-05T04:41:45.726Z,99.90
2022-08-05T04:44:13.275Z,99.90
2022-08-05T04:46:40.291Z,99.90
2022-08-05T04:49:12.206Z,99.90
2022-08-05T04:51:43.259Z,99.90
2022-08-05T04:54:10.453Z,99.90
2022-08-05T04:56:39.439Z,99.90
2022-08-05T04:59:22.093Z,99.90
2022-08-05T05:02:07.135Z,99.90
2022-08-05T05:04:47.611Z,99.90
2022-08-05T05:07:17.062Z,99.90
2022-08-05T05:09:45.572Z,99.90
2022-08-05T05:12:12.599Z,99.90
2022-08-05T05:14:49.201Z,99.90
2022-08-05T05:17:23.494Z,99.90
2022-08-05T05:19:56.651Z,99.90
2022-08-05T05:22:26.415Z,99.90
2022-08-05T05:24:58.605Z,99.90
2022-08-05T05:27:45.143Z,99.90
2022-08-05T05:30:31.046Z,99.90
2022-08-05T05:33:03.743Z,99.90
2022-08-05T05:35:45.047Z,99.90
2022-08-05T05:38:13.761Z,99.90
2022-08-05T05:40:49.565Z,99.90
2022-08-05T05:43:28.078Z,99.90
2022-08-05T05:46:13.821Z,99.90
2022-08-05T05:48:44.371Z,99.90
2022-08-05T05:51:15.699Z,99.90
2022-08-05T05:53:54.507Z,99.90
2022-08-05T05:56:33.065Z,99.90
2022-08-05T05:59:06.792Z,99.90
2022-08-05T06:01:37.847Z,99.90
2022-08-05T06:04:11.986Z,99.90
2022-08-05T06:06:47.704Z,99.90
2022-08-05T06:09:27.436Z,99.90
2022-08-05T06:12:03.786Z,99.90
2022-08-05T06:14:31.573Z,99.90
2022-08-05T06:16:58.687Z,99.90
2022-08-05T06:19:34.447Z,99.90
2022-08-05T06:22:03.915Z,99.90
2022-08-05T06:24:31.685Z,99.90
2022-08-05T06:26:58.563Z,99.90
2022-08-05T06:29:46.593Z,99.90
2022-08-05T06:32:21.468Z,99.90
2022-08-05T06:34:57.933Z,99.90
2022-08-05T06:37:56.137Z,99.90
2022-08-05T06:40:18.213Z,99.90
2022-08-05T06:42:52.731Z,99.90
2022-08-05T06:45:44.730Z,99.90
2022-08-05T06:48:36.310Z,99.90
2022-08-05T06:50:57.125Z,99.90
2022-08-05T06:53:28.384Z,99.90
2022-08-05T06:55:58.211Z,99.90
2022-08-05T06:58:34.939Z,99.90
2022-08-05T07:01:05.917Z,99.90
2022-08-05T07:03:33.700Z,99.90
2022-08-05T07:06:05.694Z,99.90
2022-08-05T07:08:48.076Z,99.90
2022-08-05T07:11:22.183Z,99.90
2022-08-05T07:14:19.967Z,99.90
2022-08-05T07:18:08.484Z,99.90
2022-08-05T07:20:31.644Z,99.90
2022-08-05T07:22:34.062Z,99.90
2022-08-05T07:25:22.509Z,99.90
2022-08-05T07:27:58.502Z,99.90
2022-08-05T07:30:32.174Z,99.90
2022-08-05T07:33:05.403Z,99.90
2022-08-05T07:36:03.257Z,99.90
2022-08-05T07:38:33.055Z,99.90
2022-08-05T07:42:07.172Z,99.90
2022-08-05T07:43:59.372Z,99.90
2022-08-05T07:46:28.219Z,99.90
2022-08-05T07:49:02.172Z,99.90
2022-08-05T07:51:52.830Z,99.90
2022-08-05T07:54:26.237Z,99.90
2022-08-05T07:57:01.476Z,99.90
2022-08-05T07:59:41.380Z,99.90
2022-08-05T08:02:15.640Z,99.90
2022-08-05T08:04:48.191Z,99.90
2022-08-05T08:07:15.869Z,99.90
2022-08-05T08:09:43.604Z,99.90
2022-08-05T08:12:27.486Z,99.90
2022-08-05T08:15:02.657Z,99.90
2022-08-05T08:17:31.382Z,99.90
2022-08-05T08:20:23.032Z,99.90
2022-08-05T08:22:55.828Z,99.90
2022-08-05T08:25:27.101Z,99.90
2022-08-05T08:28:11.390Z,99.90
2022-08-05T08:30:47.568Z,99.90
2022-08-05T08:33:14.965Z,99.90
2022-08-05T08:35:53.112Z,99.90
2022-08-05T08:38:36.004Z,99.90
2022-08-05T08:41:14.044Z,99.90
2022-08-05T08:45:19.193Z,99.90
2022-08-05T08:46:31.236Z,99.90
2022-08-05T08:49:26.401Z,99.90
2022-08-05T08:52:03.389Z,99.90
2022-08-05T08:54:36.510Z,99.90
2022-08-05T08:57:11.241Z,99.90
2022-08-05T08:59:41.870Z,99.90
2022-08-05T09:02:14.819Z,99.90
2022-08-05T09:04:57.892Z,99.90
2022-08-05T09:07:39.996Z,99.90
2022-08-05T09:10:21.158Z,99.90
2022-08-05T09:12:54.300Z,99.90
2022-08-05T09:15:21.588Z,99.90
2022-08-05T09:17:53.052Z,99.90
2022-08-05T09:20:20.920Z,99.90
2022-08-05T09:23:18.501Z,99.90
2022-08-05T09:26:02.926Z,99.90
2022-08-05T09:28:35.143Z,99.90
2022-08-05T09:31:23.244Z,99.90
2022-08-05T09:34:10.322Z,99.90
2022-08-05T09:36:55.790Z,99.90
2022-08-05T09:39:41.131Z,99.90
2022-08-05T09:42:23.670Z,99.90
2022-08-05T09:44:56.345Z,99.90
2022-08-05T09:47:30.668Z,99.90
2022-08-05T09:50:13.817Z,99.90
2022-08-05T09:52:45.807Z,99.90
2022-08-05T09:55:57.337Z,99.90
2022-08-05T09:58:00.423Z,99.90
2022-08-05T10:00:29.528Z,99.90
2022-08-05T10:02:57.971Z,99.90
2022-08-05T10:05:29.282Z,99.90
2022-08-05T10:08:35.255Z,99.40
2022-08-05T10:10:54.259Z,98.70
2022-08-05T10:13:47.248Z,99.40
2022-08-05T10:16:41.738Z,99.60
2022-08-05T10:19:23.455Z,99.60
2022-08-05T10:22:15.848Z,99.10
2022-08-05T10:24:56.693Z,98.40
2022-08-05T10:27:26.034Z,98.10
2022-08-05T10:32:03.031Z,98.50
2022-08-05T10:33:02.450Z,97.20
2022-08-05T10:35:40.284Z,96.80
2022-08-05T10:38:08.738Z,96.50
2022-08-05T10:40:52.441Z,96.40
2022-08-05T10:43:48.656Z,95.50
2022-08-05T10:46:19.158Z,95.00
2022-08-05T10:49:08.116Z,95.00
2022-08-05T10:51:48.600Z,95.40
2022-08-05T10:54:56.224Z,95.50
2022-08-05T10:57:30.889Z,95.60
2022-08-05T11:00:22.899Z,95.80
2022-08-05T11:03:23.239Z,94.50
2022-08-05T11:06:16.276Z,94.40
2022-08-05T11:09:32.354Z,93.70
2022-08-05T11:12:38.276Z,92.90
2022-08-05T11:15:19.095Z,93.90
2022-08-05T11:18:07.390Z,93.90
2022-08-05T11:20:41.718Z,93.70
2022-08-05T11:23:33.568Z,94.00
2022-08-05T11:26:28.545Z,93.50
2022-08-05T11:29:05.195Z,93.60
2022-08-05T11:31:58.744Z,92.90
2022-08-05T11:34:37.896Z,92.80
2022-08-05T11:38:14.318Z,92.80
2022-08-05T11:39:55.253Z,92.90
2022-08-05T11:42:28.622Z,93.50
2022-08-05T11:45:03.016Z,93.20
2022-08-05T11:47:48.305Z,93.10
2022-08-05T11:50:16.439Z,93.50
2022-08-05T11:52:44.027Z,93.80
2022-08-05T11:55:13.762Z,93.60
2022-08-05T11:58:10.289Z,93.60
2022-08-05T12:00:38.061Z,94.00
2022-08-05T12:03:28.875Z,93.70
2022-08-05T12:06:02.093Z,93.50
2022-08-05T12:08:31.463Z,93.50
2022-08-05T12:11:05.677Z,92.50
2022-08-05T12:13:48.619Z,92.60
2022-08-05T12:16:19.556Z,92.80
2022-08-05T12:18:49.114Z,92.90
2022-08-05T12:21:24.651Z,92.50
2022-08-05T12:23:57.712Z,90.40
2022-08-05T12:26:36.396Z,89.70
2022-08-05T12:29:24.719Z,88.50
2022-08-05T12:32:01.968Z,87.50
2022-08-05T12:34:33.776Z,87.20
2022-08-05T12:37:10.947Z,84.50
2022-08-05T12:39:48.778Z,83.70
2022-08-05T12:42:20.206Z,84.10
2022-08-05T12:44:47.949Z,82.10
2022-08-05T12:47:27.569Z,81.40
2022-08-05T12:50:04.340Z,80.00
2022-08-05T12:52:39.578Z,77.00
2022-08-05T12:55:23.258Z,76.20
2022-08-05T12:58:38.434Z,72.10
2022-08-05T13:02:04.442Z,70.50
2022-08-05T13:03:32.897Z,67.20
2022-08-05T13:06:01.708Z,68.10
2022-08-05T13:08:32.197Z,66.30
2022-08-05T13:11:04.163Z,64.70
2022-08-05T13:14:06.835Z,65.40
2022-08-05T13:16:20.311Z,67.40
2022-08-05T13:18:58.744Z,65.90
2022-08-05T13:21:27.736Z,67.20
2022-08-05T13:23:55.989Z,69.70
2022-08-05T13:26:29.836Z,70.80
2022-08-05T13:28:57.583Z,71.80
2022-08-05T13:31:34.018Z,73.20
2022-08-05T13:34:21.750Z,73.90
2022-08-05T13:36:53.975Z,74.70
2022-08-05T13:40:13.176Z,75.80
2022-08-05T13:42:14.471Z,75.20
2022-08-05T13:44:45.424Z,76.20
2022-08-05T13:47:35.231Z,76.50
2022-08-05T13:50:04.529Z,76.00
2022-08-05T13:52:35.639Z,74.10
2022-08-05T13:55:07.480Z,72.50
2022-08-05T13:57:50.606Z,67.60
2022-08-05T14:00:26.838Z,67.40
2022-08-05T14:02:57.879Z,68.00
2022-08-05T14:05:29.289Z,68.90
2022-08-05T14:08:04.352Z,69.50
2022-08-05T14:10:37.438Z,69.30
2022-08-05T14:13:07.395Z,67.70
2022-08-05T14:16:08.517Z,67.50
2022-08-05T14:18:24.242Z,67.40
2022-08-05T14:20:52.911Z,66.70
2022-08-05T14:23:25.782Z,65.20
2022-08-05T14:25:58.650Z,61.70
2022-08-05T14:28:30.648Z,60.50
2022-08-05T14:31:01.065Z,60.00
2022-08-05T14:33:57.003Z,61.50
2022-08-05T14:36:16.092Z,61.80
2022-08-05T14:38:49.479Z,62.20
2022-08-05T14:41:17.810Z,62.70
2022-08-05T14:44:00.169Z,64.30
2022-08-05T14:46:35.156Z,65.80
2022-08-05T14:49:07.386Z,67.80
2022-08-05T14:51:38.328Z,68.00
2022-08-05T14:54:27.028Z,69.00
2022-08-05T14:56:54.714Z,69.20
2022-08-05T14:59:22.149Z,68.40
2022-08-05T15:01:49.942Z,68.30
2022-08-05T15:04:22.349Z,68.20
2022-08-05T15:06:52.296Z,69.20
2022-08-05T15:09:52.096Z,69.60
2022-08-05T15:12:08.762Z,67.60
2022-08-05T15:14:48.171Z,65.30
2022-08-05T15:17:46.021Z,65.00
2022-08-05T15:20:08.857Z,63.50
2022-08-05T15:22:39.478Z,62.10
2022-08-05T15:25:11.608Z,61.60
2022-08-05T15:27:42.962Z,61.50
2022-08-05T15:30:19.161Z,59.80
2022-08-05T15:32:46.802Z,57.70
2022-08-05T15:35:14.809Z,55.40
2022-08-05T15:38:33.029Z,55.50
2022-08-05T15:40:59.388Z,54.90
2022-08-05T15:43:20.058Z,55.10
2022-08-05T15:45:59.713Z,57.20
2022-08-05T15:48:28.538Z,57.40
2022-08-05T15:50:56.478Z,57.20
2022-08-05T15:53:26.352Z,56.50
2022-08-05T15:56:02.558Z,57.80
2022-08-05T15:58:35.416Z,57.60
2022-08-05T16:01:04.262Z,56.00
2022-08-05T16:03:43.339Z,56.60
2022-08-05T16:06:11.389Z,56.30
2022-08-05T16:08:39.964Z,56.20
2022-08-05T16:11:07.999Z,56.40
2022-08-05T16:13:35.692Z,55.90
2022-08-05T16:16:03.958Z,55.50
2022-08-05T16:18:35.055Z,55.30
2022-08-05T16:21:18.992Z,55.60
2022-08-05T16:23:53.908Z,56.80
2022-08-05T16:26:26.509Z,58.50
2022-08-05T16:28:55.533Z,60.60
2022-08-05T16:31:22.910Z,62.80
2022-08-05T16:33:52.202Z,65.40
2022-08-05T16:36:26.587Z,67.40
2022-08-05T16:38:54.757Z,67.10
2022-08-05T16:42:14.654Z,67.50
2022-08-05T16:44:12.995Z,68.10
2022-08-05T16:46:55.331Z,68.00
2022-08-05T16:49:23.837Z,66.80
2022-08-05T16:51:54.729Z,66.90
2022-08-05T16:54:30.286Z,67.60
2022-08-05T16:56:59.352Z,69.00
2022-08-05T16:59:27.849Z,70.50
2022-08-05T17:01:58.132Z,71.40
2022-08-05T17:04:28.212Z,72.60
2022-08-05T17:07:03.190Z,73.00
2022-08-05T17:09:57.266Z,73.50
2022-08-05T17:12:51.928Z,73.80
2022-08-05T17:15:15.391Z,72.70
2022-08-05T17:17:43.671Z,70.10
2022-08-05T17:20:14.591Z,69.00
2022-08-05T17:22:41.917Z,69.60
2022-08-05T17:25:09.714Z,70.70
2022-08-05T17:27:56.747Z,72.00
2022-08-05T17:30:28.327Z,73.40
2022-08-05T17:32:55.956Z,75.30
2022-08-05T17:35:22.943Z,75.00
2022-08-05T17:37:50.473Z,74.90
2022-08-05T17:40:22.626Z,74.10
2022-08-05T17:42:51.233Z,72.80
2022-08-05T17:45:21.863Z,72.00
2022-08-05T17:47:54.425Z,71.30
2022-08-05T17:50:28.116Z,70.40
2022-08-05T17:52:56.783Z,70.40
2022-08-05T17:55:34.333Z,70.80
2022-08-05T17:58:16.723Z,71.10
2022-08-05T18:00:50.761Z,71.50
2022-08-05T18:03:56.242Z,70.60
2022-08-05T18:06:11.974Z,70.00
2022-08-05T18:08:52.223Z,70.40
2022-08-05T18:11:23.975Z,70.30
2022-08-05T18:13:56.927Z,70.70
2022-08-05T18:16:26.468Z,71.00
2022-08-05T18:18:53.379Z,70.80
2022-08-05T18:21:22.995Z,71.50
2022-08-05T18:23:54.333Z,71.80
2022-08-05T18:26:27.785Z,72.30
2022-08-05T18:28:56.992Z,73.10
2022-08-05T18:31:25.131Z,73.70
2022-08-05T18:33:52.724Z,74.50
2022-08-05T18:36:19.778Z,74.90
2022-08-05T18:38:55.242Z,76.10
2022-08-05T18:41:53.666Z,76.30
2022-08-05T18:44:09.616Z,75.90
2022-08-05T18:46:36.455Z,76.00
2022-08-05T18:49:23.327Z,75.40
2022-08-05T18:52:15.796Z,75.20
2022-08-05T18:54:45.823Z,75.70
2022-08-05T18:57:15.433Z,76.30
2022-08-05T19:00:01.791Z,76.20
2022-08-05T19:02:30.145Z,75.30
2022-08-05T19:05:02.355Z,74.80
2022-08-05T19:07:48.153Z,75.20
2022-08-05T19:10:19.093Z,75.60
2022-08-05T19:12:54.721Z,76.10
2022-08-05T19:15:56.607Z,77.00
2022-08-05T19:18:13.581Z,77.40
2022-08-05T19:20:52.155Z,78.20
2022-08-05T19:23:22.474Z,77.50
2022-08-05T19:26:08.477Z,77.00
2022-08-05T19:28:42.295Z,77.70
2022-08-05T19:31:19.308Z,78.10
2022-08-05T19:33:56.456Z,78.50
2022-08-05T19:36:25.920Z,78.50
2022-08-05T19:39:01.136Z,78.60
2022-08-05T19:41:58.450Z,78.70
2022-08-05T19:44:17.344Z,78.70
2022-08-05T19:46:45.537Z,79.80
2022-08-05T19:49:16.830Z,79.60
2022-08-05T19:52:09.354Z,79.50
2022-08-05T19:54:32.902Z,80.00
2022-08-05T19:57:06.513Z,80.20
2022-08-05T19:59:56.320Z,80.60
2022-08-05T20:02:33.016Z,81.10
2022-08-05T20:05:00.239Z,81.50
2022-08-05T20:07:38.935Z,81.60
2022-08-05T20:10:15.631Z,82.30
2022-08-05T20:12:45.981Z,83.10
2022-08-05T20:15:13.961Z,83.20
2022-08-05T20:17:40.919Z,84.10
2022-08-05T20:20:11.036Z,84.70
2022-08-05T20:22:38.271Z,84.50
2022-08-05T20:25:09.150Z,84.40
2022-08-05T20:27:41.804Z,84.20
2022-08-05T20:30:12.051Z,85.20
2022-08-05T20:32:45.172Z,85.50
2022-08-05T20:35:13.522Z,86.00
2022-08-05T20:38:05.832Z,86.50
2022-08-05T20:40:32.811Z,86.70
2022-08-05T20:43:00.286Z,87.30
2022-08-05T20:45:56.739Z,87.60
2022-08-05T20:48:16.414Z,87.40
2022-08-05T20:50:45.410Z,88.10
2022-08-05T20:53:16.358Z,88.60
2022-08-05T20:56:09.075Z,88.20
2022-08-05T20:58:36.949Z,88.90
2022-08-05T21:01:04.537Z,89.20
2022-08-05T21:03:34.627Z,89.30
2022-08-05T21:06:02.130Z,89.40
2022-08-05T21:08:42.361Z,89.50
2022-08-05T21:11:12.982Z,89.20
2022-08-05T21:14:00.027Z,89.60
2022-08-05T21:16:29.749Z,89.80
2022-08-05T21:19:00.078Z,90.10
2022-08-05T21:21:44.170Z,90.40
2022-08-05T21:24:17.257Z,90.30
2022-08-05T21:26:53.510Z,90.30
2022-08-05T21:29:26.618Z,90.40
2022-08-05T21:31:58.515Z,90.90
2022-08-05T21:34:26.416Z,90.90
2022-08-05T21:36:55.361Z,91.20
2022-08-05T21:39:26.833Z,91.30
2022-08-05T21:42:01.023Z,91.30
2022-08-05T21:44:29.029Z,91.50
2022-08-05T21:46:58.203Z,91.90
2022-08-05T21:50:00.164Z,92.10
2022-08-05T21:52:15.854Z,92.20
2022-08-05T21:54:51.302Z,92.20
2022-08-05T21:57:31.606Z,92.20
2022-08-05T22:00:11.418Z,92.30
2022-08-05T22:02:38.886Z,92.80
2022-08-05T22:05:06.159Z,92.50
2022-08-05T22:07:39.801Z,92.50
2022-08-05T22:10:26.805Z,92.60
2022-08-05T22:12:57.163Z,92.60
2022-08-05T22:16:01.028Z,92.20
2022-08-05T22:18:12.100Z,92.10
2022-08-05T22:20:41.477Z,92.00
2022-08-05T22:24:02.159Z,92.20
2022-08-05T22:26:34.071Z,92.20
2022-08-05T22:29:02.754Z,92.30
2022-08-05T22:31:44.376Z,92.40
2022-08-05T22:34:12.855Z,92.40
2022-08-05T22:36:48.146Z,92.60
2022-08-05T22:39:21.451Z,92.70
2022-08-05T22:42:09.664Z,92.80
2022-08-05T22:44:36.237Z,93.10
2022-08-05T22:47:05.043Z,93.30
2022-08-05T22:50:18.432Z,93.40
2022-08-05T22:52:57.869Z,93.60
2022-08-05T22:55:29.583Z,93.70
2022-08-05T22:58:16.617Z,93.90
2022-08-05T23:00:56.974Z,93.80
2022-08-05T23:03:57.905Z,93.90
2022-08-05T23:06:11.197Z,93.90
2022-08-05T23:08:38.126Z,94.20
2022-08-05T23:11:06.396Z,94.10
2022-08-05T23:13:35.642Z,94.10
2022-08-05T23:16:04.362Z,94.40
2022-08-05T23:18:32.100Z,94.40
2022-08-05T23:20:59.191Z,94.20
2022-08-05T23:23:29.940Z,94.30
2022-08-05T23:26:00.689Z,94.40
2022-08-05T23:28:29.269Z,94.80
2022-08-05T23:31:07.076Z,95.00
2022-08-05T23:34:05.817Z,95.30
2022-08-05T23:36:40.103Z,95.40
2022-08-05T23:39:17.589Z,95.50
2022-08-05T23:41:59.405Z,95.60
2022-08-05T23:44:31.094Z,95.70
2022-08-05T23:46:59.367Z,95.90
2022-08-05T23:49:36.037Z,96.30
2022-08-05T23:52:22.141Z,96.50
2022-08-05T23:54:53.663Z,96.50
2022-08-05T23:57:20.723Z,96.60
